createdAt,value
2022-12-08T00:05:40.449Z,22.70
2022-12-08T00:15:56.067Z,22.70
2022-12-08T00:26:09.988Z,23.00
2022-12-08T00:36:17.851Z,23.00
2022-12-08T00:46:56.255Z,23.20
2022-12-08T00:57:03.314Z,23.40
2022-12-08T01:07:17.411Z,23.50
2022-12-08T01:17:27.604Z,23.60
2022-12-08T01:27:36.696Z,23.70
2022-12-08T01:37:43.801Z,23.80
2022-12-08T01:47:56.694Z,23.90
2022-12-08T01:58:09.037Z,23.90
2022-12-08T02:08:18.133Z,23.90
2022-12-08T02:18:38.846Z,24.00
2022-12-08T02:29:18.262Z,24.00
2022-12-08T02:39:38.958Z,24.10
2022-12-08T02:49:46.136Z,24.20
2022-12-08T03:00:17.158Z,24.20
2022-12-08T03:10:30.744Z,24.20
2022-12-08T03:20:43.786Z,24.20
2022-12-08T03:31:43.417Z,24.20
2022-12-08T03:42:15.227Z,24.20
2022-12-08T04:04:15.952Z,24.20
2022-12-08T04:14:23.037Z,24.30
2022-12-08T04:24:39.884Z,24.40
2022-12-08T04:34:51.732Z,24.40
2022-12-08T04:45:00.488Z,24.40
2022-12-08T04:55:08.740Z,24.50
2022-12-08T05:05:18.264Z,24.40
2022-12-08T05:15:25.334Z,24.30
2022-12-08T05:25:34.128Z,24.20
2022-12-08T05:35:44.208Z,24.20
2022-12-08T05:46:00.561Z,24.10
2022-12-08T05:56:12.191Z,24.10
2022-12-08T06:06:21.893Z,24.30
2022-12-08T06:16:37.053Z,24.40
2022-12-08T06:26:56.584Z,24.40
2022-12-08T06:37:12.450Z,24.40
2022-12-08T07:00:20.616Z,24.40
2022-12-08T07:11:26.111Z,24.30
2022-12-08T07:32:52.654Z,24.20
2022-12-08T07:43:03.534Z,24.10
2022-12-08T07:54:09.162Z,24.10
2022-12-08T08:04:59.930Z,24.10
2022-12-08T08:15:10.114Z,24.00
2022-12-08T08:25:24.027Z,24.10
2022-12-08T08:35:31.749Z,24.10
2022-12-08T08:45:44.218Z,24.10
2022-12-08T08:55:51.244Z,24.00
2022-12-08T09:06:11.689Z,24.00
2022-12-08T09:16:30.254Z,24.00
2022-12-08T09:26:38.844Z,24.00
2022-12-08T09:36:48.730Z,24.10
2022-12-08T09:47:01.596Z,24.10
2022-12-08T09:57:17.696Z,24.20
2022-12-08T10:07:33.393Z,24.10
2022-12-08T10:17:45.381Z,24.00
2022-12-08T10:27:57.609Z,24.10
2022-12-08T10:38:07.874Z,24.10
2022-12-08T10:48:21.916Z,24.10
2022-12-08T10:58:31.175Z,24.10
2022-12-08T11:08:52.569Z,24.10
2022-12-08T11:19:01.005Z,24.00
2022-12-08T11:29:11.812Z,24.10
2022-12-08T11:39:34.426Z,24.10
2022-12-08T12:00:01.017Z,24.00
2022-12-08T12:10:55.740Z,24.10
2022-12-08T12:21:08.748Z,24.10
2022-12-08T12:31:20.742Z,24.00
2022-12-08T12:41:31.148Z,24.10
2022-12-08T12:51:48.569Z,24.10
2022-12-08T13:01:58.293Z,24.00
2022-12-08T13:12:14.633Z,24.00
2022-12-08T13:22:51.099Z,24.00
2022-12-08T13:33:20.001Z,24.10
2022-12-08T13:43:47.702Z,24.00
2022-12-08T14:04:54.616Z,24.10
2022-12-08T14:15:05.728Z,24.10
2022-12-08T14:25:17.987Z,24.00
2022-12-08T14:35:28.454Z,24.10
2022-12-08T14:45:36.139Z,24.00
2022-12-08T14:55:46.296Z,24.00
2022-12-08T15:05:55.653Z,24.00
2022-12-08T15:16:07.476Z,24.00
2022-12-08T15:26:21.300Z,24.00
2022-12-08T15:36:30.055Z,24.10
2022-12-08T15:46:37.208Z,24.30
2022-12-08T15:57:17.929Z,24.40
2022-12-08T16:07:27.715Z,24.50
2022-12-08T16:18:05.678Z,24.50
2022-12-08T16:28:52.877Z,24.50
2022-12-08T16:38:55.432Z,24.50
2022-12-08T16:49:02.416Z,24.50
2022-12-08T16:59:11.055Z,24.20
2022-12-08T17:09:18.297Z,24.10
2022-12-08T17:19:27.337Z,24.00
2022-12-08T17:29:34.240Z,23.90
2022-12-08T17:39:43.241Z,24.00
2022-12-08T17:49:50.373Z,24.10
2022-12-08T17:59:59.031Z,23.90
2022-12-08T18:10:06.836Z,23.70
2022-12-08T18:20:16.965Z,23.50
2022-12-08T18:30:24.059Z,23.50
2022-12-08T18:40:32.654Z,23.40
2022-12-08T18:50:39.529Z,23.40
2022-12-08T19:00:48.395Z,23.60
2022-12-08T19:10:55.377Z,23.70
2022-12-08T19:21:04.504Z,23.60
2022-12-08T19:31:12.434Z,23.40
2022-12-08T19:41:38.081Z,23.40
2022-12-08T19:51:45.212Z,23.30
2022-12-08T20:01:53.771Z,23.40
2022-12-08T20:12:00.799Z,23.60
2022-12-08T20:22:10.400Z,23.60
2022-12-08T20:32:17.394Z,23.70
2022-12-08T20:42:26.173Z,23.80
2022-12-08T20:52:33.188Z,23.70
2022-12-08T21:02:48.691Z,23.70
2022-12-08T21:12:58.118Z,23.60
2022-12-08T21:23:08.032Z,23.40
2022-12-08T21:33:39.594Z,23.40
2022-12-08T21:43:48.493Z,23.40
2022-12-08T21:53:55.689Z,23.60
2022-12-08T22:04:04.706Z,23.70
2022-12-08T22:14:14.972Z,23.70
2022-12-08T22:24:24.892Z,23.60
2022-12-08T22:34:32.377Z,23.60
2022-12-08T22:44:41.147Z,23.50
2022-12-08T22:54:48.179Z,23.50
2022-12-08T23:04:59.125Z,23.40
2022-12-08T23:15:06.660Z,23.50
2022-12-08T23:25:15.805Z,23.40
2022-12-08T23:35:22.888Z,23.40
2022-12-08T23:45:31.505Z,23.30
2022-12-08T23:55:38.548Z,23.30
